Time;durP1;ratioP1;P1;durP2;ratioP2;P2;SDS_P1;SDS_P2;PMS_P1;PMS_P2;Temp;Humidity;BMP_temperature;BMP_pressure;BME280_temperature;BME280_humidity;BME280_pressure;Samples;Min_cycle;Max_cycle;Signal;HPM_P1;HPM_P2
2021/04/21 00:00:29;;;;;;;2.28;0.93;;;19.40;55.80;;;;;;4147835;28;20041;-65
2021/04/21 00:02:31;;;;;;;2.33;0.80;;;19.30;55.50;;;;;;4145921;28;20057;-61
2021/04/21 00:04:35;;;;;;;2.97;1.10;;;19.30;54.40;;;;;;4149784;28;20056;-61
2021/04/21 00:06:40;;;;;;;3.83;0.82;;;19.30;54.60;;;;;;4153304;28;20120;-62
2021/04/21 00:08:43;;;;;;;4.15;1.10;;;19.40;54.90;;;;;;4143172;28;20052;-61
2021/04/21 00:10:45;;;;;;;;;;;19.40;55.20;;;;;;4152742;28;20026;-61
2021/04/21 00:12:49;;;;;;;1.55;0.90;;;19.40;55.30;;;;;;4143410;28;20016;-61
2021/04/21 00:14:52;;;;;;;3.05;1.05;;;19.40;55.40;;;;;;4147379;28;20034;-62
2021/04/21 00:16:56;;;;;;;;;;;19.40;55.50;;;;;;4154807;28;20144;-59
2021/04/21 00:18:59;;;;;;;4.43;1.20;;;19.40;55.50;;;;;;4148346;28;19917;-59
2021/04/21 00:21:03;;;;;;;3.47;1.05;;;19.50;55.60;;;;;;4147645;28;20520;-59
2021/04/21 00:23:11;;;;;;;0.93;0.85;;;19.50;55.30;;;;;;4150282;28;20044;-59
2021/04/21 00:25:14;;;;;;;1.58;0.90;;;19.50;55.20;;;;;;4150068;28;20613;-59
2021/04/21 00:27:22;;;;;;;1.95;1.08;;;19.50;55.20;;;;;;4145075;28;20586;-60
2021/04/21 00:29:25;;;;;;;1.65;0.80;;;19.40;55.10;;;;;;4148745;28;20642;-59
2021/04/21 00:31:27;;;;;;;;;;;19.50;55.10;;;;;;4154874;28;20112;-60
2021/04/21 00:33:30;;;;;;;2.05;0.90;;;19.50;55.10;;;;;;4152782;28;21402;-60
2021/04/21 00:35:37;;;;;;;2.72;0.82;;;19.40;55.00;;;;;;4147540;28;20116;-59
2021/04/21 00:37:41;;;;;;;1.33;0.88;;;19.50;55.30;;;;;;4148540;28;20025;-60
2021/04/21 00:39:46;;;;;;;5.95;0.77;;;19.50;56.60;;;;;;4147702;28;20041;-59
2021/04/21 00:42:24;;;;;;;3.47;0.70;;;19.50;57.20;;;;;;4147638;28;20076;-58
2021/04/21 00:44:47;;;;;;;3.55;1.10;;;19.50;57.60;;;;;;4146988;28;20033;-55
2021/04/21 00:46:57;;;;;;;1.10;0.88;;;19.50;58.10;;;;;;4152916;28;20076;-59
2021/04/21 00:49:10;;;;;;;3.13;1.30;;;19.60;58.40;;;;;;4153803;28;20036;-58
2021/04/21 00:51:15;;;;;;;2.83;1.05;;;19.60;58.60;;;;;;4149593;28;20034;-60
2021/04/21 00:53:30;;;;;;;2.03;0.82;;;19.60;59.60;;;;;;4151055;28;20109;-61
2021/04/21 00:55:37;;;;;;;1.92;1.05;;;19.60;59.10;;;;;;4151722;28;20029;-61
2021/04/21 00:58:00;;;;;;;2.28;1.00;;;19.70;59.00;;;;;;4151663;28;20086;-59
2021/04/21 01:00:14;;;;;;;2.67;1.30;;;19.70;59.00;;;;;;4146537;28;20052;-59
2021/04/21 01:02:22;;;;;;;2.15;0.90;;;19.70;59.00;;;;;;4149551;28;20057;-59
2021/04/21 01:04:25;;;;;;;1.92;1.05;;;19.80;58.90;;;;;;4145263;28;20034;-58
2021/04/21 01:06:42;;;;;;;2.05;1.00;;;19.80;58.90;;;;;;4152417;28;20045;-58
2021/04/21 01:08:57;;;;;;;3.30;0.90;;;19.80;58.80;;;;;;4149380;28;20519;-56
2021/04/21 01:11:08;;;;;;;2.20;1.05;;;19.80;58.80;;;;;;4157220;28;20056;-57
2021/04/21 01:13:10;;;;;;;3.17;1.10;;;19.80;58.80;;;;;;4149890;28;20118;-55
2021/04/21 01:15:14;;;;;;;3.65;1.02;;;19.80;58.70;;;;;;4144144;28;20136;-50
2021/04/21 01:17:18;;;;;;;1.55;0.85;;;19.80;58.70;;;;;;4144630;28;20048;-52
2021/04/21 01:19:44;;;;;;;4.68;1.08;;;19.90;58.70;;;;;;4151299;28;20040;-53
2021/04/21 01:21:54;;;;;;;2.70;1.10;;;19.90;58.70;;;;;;4146261;28;20622;-58
2021/04/21 01:24:15;;;;;;;2.67;0.90;;;19.90;58.60;;;;;;4150566;28;20471;-57
2021/04/21 01:26:32;;;;;;;1.00;0.70;;;20.00;58.70;;;;;;4161448;28;20081;-58
2021/04/21 01:28:40;;;;;;;3.78;0.98;;;20.00;58.70;;;;;;4152256;28;20030;-58
2021/04/21 01:30:45;;;;;;;2.67;1.25;;;20.00;58.70;;;;;;4150641;28;20045;-58
2021/04/21 01:32:58;;;;;;;2.03;1.20;;;20.00;58.70;;;;;;4142367;28;20544;-56
2021/04/21 01:35:01;;;;;;;2.60;0.90;;;20.00;58.60;;;;;;4150712;28;20021;-57
2021/04/21 01:37:06;;;;;;;4.60;1.10;;;20.00;58.60;;;;;;4147971;28;20151;-58
2021/04/21 01:39:10;;;;;;;2.78;0.90;;;20.00;58.60;;;;;;4143586;28;20701;-56
2021/04/21 01:41:17;;;;;;;1.85;0.73;;;20.00;58.50;;;;;;4146538;28;20516;-57
2021/04/21 01:43:23;;;;;;;3.92;1.20;;;20.10;58.50;;;;;;4153076;28;20084;-58
2021/04/21 01:45:30;;;;;;;1.88;0.88;;;20.10;58.50;;;;;;4148954;28;20515;-59
2021/04/21 01:47:32;;;;;;;3.35;0.80;;;20.10;58.30;;;;;;4153420;28;20079;-57
2021/04/21 01:49:37;;;;;;;1.02;0.77;;;20.10;58.40;;;;;;4151379;28;20565;-56
2021/04/21 01:51:43;;;;;;;6.00;1.33;;;20.20;58.30;;;;;;4147746;28;20107;-59
2021/04/21 01:53:53;;;;;;;2.42;1.08;;;20.20;58.40;;;;;;4150193;28;20083;-59
2021/04/21 01:56:24;;;;;;;3.13;1.02;;;20.20;58.30;;;;;;4150411;28;20127;-59
2021/04/21 01:58:29;;;;;;;1.25;0.90;;;20.20;58.20;;;;;;4142407;28;20034;-58
2021/04/21 02:00:35;;;;;;;2.47;0.90;;;20.20;58.30;;;;;;4147761;28;20663;-56
2021/04/21 02:02:52;;;;;;;1.23;0.68;;;20.30;58.30;;;;;;4145981;28;20049;-56
2021/04/21 02:05:28;;;;;;;2.22;1.00;;;20.30;58.10;;;;;;4146458;28;20426;-57
2021/04/21 02:07:55;;;;;;;2.78;0.80;;;20.30;57.90;;;;;;4144230;28;20044;-58
2021/04/21 02:10:21;;;;;;;3.13;1.00;;;20.30;58.00;;;;;;4147472;28;20041;-52
2021/04/21 02:12:58;;;;;;;2.85;0.70;;;20.30;57.90;;;;;;4149011;28;20045;-56
2021/04/21 02:15:17;;;;;;;2.25;0.98;;;20.40;58.50;;;;;;4148399;28;20053;-57
2021/04/21 02:17:44;;;;;;;2.08;0.90;;;20.40;57.80;;;;;;4150114;28;20159;-54
2021/04/21 02:20:06;;;;;;;1.83;0.73;;;20.40;57.70;;;;;;4149122;28;20033;-55
2021/04/21 02:22:33;;;;;;;3.80;1.10;;;20.40;57.70;;;;;;4147747;28;20041;-55
2021/04/21 02:24:53;;;;;;;3.33;0.90;;;20.40;57.60;;;;;;4152936;28;20037;-59
2021/04/21 02:27:16;;;;;;;1.85;0.90;;;20.40;57.90;;;;;;4152576;28;20569;-58
2021/04/21 02:29:26;;;;;;;1.27;0.82;;;20.40;57.80;;;;;;4156103;28;20025;-58
2021/04/21 02:31:55;;;;;;;1.35;0.90;;;20.50;57.80;;;;;;4151139;28;20108;-56
2021/04/21 02:34:14;;;;;;;1.52;0.90;;;20.50;57.70;;;;;;4151683;28;20597;-55
2021/04/21 02:36:42;;;;;;;1.05;0.70;;;20.50;57.70;;;;;;4151403;28;20044;-56
2021/04/21 02:38:55;;;;;;;1.92;1.00;;;20.60;57.70;;;;;;4158120;28;20503;-59
2021/04/21 02:41:14;;;;;;;0.80;0.70;;;20.50;57.50;;;;;;4148337;28;20404;-52
2021/04/21 02:43:51;;;;;;;4.88;1.15;;;20.60;56.00;;;;;;4149698;28;20041;-57
2021/04/21 02:46:07;;;;;;;1.60;0.80;;;20.50;55.20;;;;;;4134915;28;20477;-59
2021/04/21 02:48:32;;;;;;;2.85;0.90;;;20.60;55.80;;;;;;4143352;28;20029;-55
2021/04/21 02:50:36;;;;;;;0.98;0.77;;;20.60;55.90;;;;;;4146384;28;20033;-57
2021/04/21 02:53:08;;;;;;;2.38;0.90;;;20.60;55.90;;;;;;4158431;28;20113;-60
2021/04/21 02:55:38;;;;;;;2.92;1.02;;;20.60;55.90;;;;;;4154018;28;20447;-59
2021/04/21 02:58:17;;;;;;;1.23;0.70;;;20.60;55.90;;;;;;4149186;28;20496;-56
2021/04/21 03:00:32;;;;;;;0.82;0.80;;;20.60;55.90;;;;;;4158570;28;20060;-57
2021/04/21 03:02:54;;;;;;;1.02;0.90;;;20.70;55.90;;;;;;4150476;28;20060;-53
2021/04/21 03:04:56;;;;;;;2.88;0.90;;;20.70;56.30;;;;;;4156569;28;20025;-56
2021/04/21 03:07:03;;;;;;;2.13;0.88;;;20.70;56.60;;;;;;4147882;28;20730;-56
2021/04/21 03:09:09;;;;;;;2.38;0.90;;;20.80;56.80;;;;;;4150148;28;20050;-58
2021/04/21 03:11:14;;;;;;;0.70;0.70;;;20.80;56.90;;;;;;4148948;28;20073;-59
2021/04/21 03:13:21;;;;;;;2.15;0.93;;;20.80;57.00;;;;;;4153503;28;20375;-58
2021/04/21 03:15:27;;;;;;;4.00;1.05;;;20.80;57.00;;;;;;4148357;28;20720;-60
2021/04/21 03:17:29;;;;;;;3.20;1.05;;;20.90;57.00;;;;;;4150311;28;20278;-57
2021/04/21 03:19:38;;;;;;;3.47;1.15;;;21.00;57.00;;;;;;4148295;28;20180;-58
2021/04/21 03:21:46;;;;;;;1.02;0.93;;;21.00;56.60;;;;;;4155768;28;20095;-57
2021/04/21 03:23:53;;;;;;;1.05;0.85;;;21.00;57.00;;;;;;4159492;28;20669;-58
2021/04/21 03:25:59;;;;;;;2.75;0.60;;;21.00;55.70;;;;;;4160496;28;20013;-56
2021/04/21 03:28:07;;;;;;;1.45;0.80;;;21.00;55.90;;;;;;4156762;28;20033;-59
2021/04/21 03:30:13;;;;;;;1.52;0.90;;;21.10;55.90;;;;;;4156969;28;20042;-55
2021/04/21 03:32:25;;;;;;;2.13;0.90;;;21.10;56.00;;;;;;4158444;28;20021;-57
2021/04/21 03:34:29;;;;;;;2.40;1.10;;;21.20;55.90;;;;;;4156057;28;20398;-56
2021/04/21 03:36:33;;;;;;;0.93;0.65;;;21.20;55.90;;;;;;4152089;28;20426;-57
2021/04/21 03:38:35;;;;;;;1.08;0.80;;;21.20;55.70;;;;;;4152514;28;20473;-52
2021/04/21 03:40:39;;;;;;;2.88;1.08;;;21.30;55.70;;;;;;4155359;28;20072;-58
2021/04/21 03:42:42;;;;;;;1.05;0.85;;;21.30;55.60;;;;;;4150359;28;20377;-55
2021/04/21 03:44:45;;;;;;;2.22;0.88;;;21.40;55.50;;;;;;4148859;28;20603;-57
2021/04/21 03:46:48;;;;;;;1.42;0.63;;;21.40;55.30;;;;;;4150811;28;20030;-52
2021/04/21 03:48:51;;;;;;;1.77;0.70;;;21.40;55.20;;;;;;4149334;28;20150;-54
2021/04/21 03:50:55;;;;;;;2.40;0.95;;;21.50;55.10;;;;;;4147502;28;20434;-57
2021/04/21 03:53:04;;;;;;;0.70;0.70;;;21.60;55.00;;;;;;4150869;28;20059;-57
2021/04/21 03:55:07;;;;;;;3.13;1.13;;;21.60;54.80;;;;;;4149276;28;20103;-58
2021/04/21 03:57:11;;;;;;;;;;;21.70;54.70;;;;;;4148791;28;20029;-56
2021/04/21 03:59:15;;;;;;;2.08;0.60;;;21.70;54.60;;;;;;4148662;28;19928;-57
2021/04/21 04:01:20;;;;;;;1.90;0.60;;;21.80;54.60;;;;;;4150560;28;20021;-56
2021/04/21 04:03:29;;;;;;;1.63;0.55;;;21.80;54.40;;;;;;4147018;28;20340;-56
2021/04/21 04:06:10;;;;;;;1.73;0.80;;;21.80;54.30;;;;;;4155250;28;20215;-53
2021/04/21 04:08:15;;;;;;;1.25;0.73;;;22.00;54.20;;;;;;4147349;28;20205;-56
2021/04/21 04:10:18;;;;;;;1.73;0.80;;;22.00;54.10;;;;;;4154041;28;20482;-55
2021/04/21 04:12:21;;;;;;;;;;;22.10;54.00;;;;;;4148766;28;20487;-55
2021/04/21 04:14:27;;;;;;;2.83;0.80;;;22.10;54.00;;;;;;4157020;28;19991;-57
2021/04/21 04:16:31;;;;;;;2.28;1.10;;;22.20;53.80;;;;;;4153771;28;20159;-54
2021/04/21 04:18:35;;;;;;;1.05;0.60;;;22.20;53.60;;;;;;4155904;28;20368;-55
2021/04/21 04:20:40;;;;;;;1.70;0.70;;;22.20;53.40;;;;;;4152192;28;20030;-52
2021/04/21 04:22:44;;;;;;;3.75;1.20;;;22.30;53.30;;;;;;4158068;28;20565;-56
2021/04/21 04:24:57;;;;;;;1.45;0.57;;;22.40;53.10;;;;;;4147953;28;20195;-55
2021/04/21 04:27:02;;;;;;;1.45;0.80;;;22.40;53.00;;;;;;4154042;28;20502;-58
2021/04/21 04:29:04;;;;;;;1.40;0.80;;;22.50;52.90;;;;;;4150333;28;20809;-55
2021/04/21 04:31:07;;;;;;;2.60;0.82;;;22.50;52.80;;;;;;4158806;28;20060;-57
2021/04/21 04:33:10;;;;;;;1.50;0.95;;;22.60;52.80;;;;;;4152357;28;20037;-58
2021/04/21 04:35:13;;;;;;;3.75;0.88;;;22.60;52.60;;;;;;4156825;28;20089;-61
2021/04/21 04:37:20;;;;;;;2.33;1.00;;;22.70;52.60;;;;;;4149809;28;20464;-60
2021/04/21 04:39:23;;;;;;;2.75;1.05;;;22.80;51.70;;;;;;4146256;28;20574;-61
2021/04/21 04:41:29;;;;;;;3.65;1.17;;;22.80;51.00;;;;;;4152244;28;20513;-60
2021/04/21 04:43:34;;;;;;;3.67;1.25;;;22.80;51.30;;;;;;4139690;28;20033;-60
2021/04/21 04:45:41;;;;;;;2.67;0.90;;;22.90;51.50;;;;;;4144377;28;20042;-60
2021/04/21 04:47:49;;;;;;;0.60;0.60;;;23.00;51.50;;;;;;4144893;28;20335;-62
2021/04/21 04:50:16;;;;;;;1.38;1.10;;;23.10;51.60;;;;;;4146979;28;20041;-59
2021/04/21 04:52:20;;;;;;;3.55;1.02;;;23.10;51.60;;;;;;4150437;28;20029;-60
2021/04/21 04:54:22;;;;;;;2.40;0.95;;;23.20;51.50;;;;;;4147589;28;20067;-60
2021/04/21 04:56:25;;;;;;;3.65;0.80;;;23.20;51.30;;;;;;4150863;28;20029;-61
2021/04/21 04:58:28;;;;;;;2.70;1.17;;;23.30;51.20;;;;;;4150862;28;20537;-61
2021/04/21 05:00:31;;;;;;;2.13;0.80;;;;;;;;;;4150196;28;20441;-60
2021/04/21 05:02:36;;;;;;;2.83;1.00;;;;;;;;;;4150029;28;20061;-59
2021/04/21 05:04:41;;;;;;;3.55;1.52;;;;;;;;;;4154649;28;20024;-56
2021/04/21 05:06:59;;;;;;;2.42;1.20;;;;;;;;;;4147377;28;20547;-59
2021/04/21 05:09:04;;;;;;;1.83;1.08;;;23.40;51.30;;;;;;4151082;28;20034;-59
2021/04/21 05:11:12;;;;;;;3.60;0.90;;;23.80;50.80;;;;;;4143829;28;20160;-60
2021/04/21 05:13:18;;;;;;;2.55;0.90;;;;;;;;;;4145382;28;20081;-59
2021/04/21 05:15:38;;;;;;;2.20;0.98;;;;;;;;;;4150981;28;20399;-59
2021/04/21 05:18:03;;;;;;;2.35;0.88;;;;;;;;;;4146854;28;20551;-59
2021/04/21 05:20:20;;;;;;;2.95;1.10;;;;;;;;;;4155855;28;20402;-57
2021/04/21 05:22:31;;;;;;;4.05;0.90;;;;;;;;;;4144960;28;20038;-59
2021/04/21 05:24:52;;;;;;;2.78;1.00;;;;;;;;;;4144745;28;20070;-55
2021/04/21 05:26:54;;;;;;;1.65;0.93;;;;;;;;;;4140242;28;20065;-57
2021/04/21 05:29:02;;;;;;;2.17;1.02;;;;;;;;;;4151667;28;20324;-59
2021/04/21 05:31:15;;;;;;;1.40;0.90;;;;;;;;;;4145724;28;20041;-60
2021/04/21 05:33:17;;;;;;;;;;;;;;;;;;4144269;28;20134;-58
2021/04/21 05:35:25;;;;;;;4.05;1.00;;;;;;;;;;4144464;28;19909;-59
2021/04/21 05:37:42;;;;;;;2.88;1.00;;;;;;;;;;4148496;28;20052;-60
2021/04/21 05:39:44;;;;;;;4.05;1.35;;;;;;;;;;4138088;28;20044;-59
2021/04/21 05:42:04;;;;;;;1.50;1.00;;;;;;;;;;4143754;28;20046;-59
2021/04/21 05:44:21;;;;;;;2.53;0.95;;;;;;;;;;4146018;28;20495;-59
2021/04/21 05:46:23;;;;;;;1.55;1.00;;;;;;;;;;4156590;28;20039;-58
2021/04/21 05:48:44;;;;;;;2.47;1.00;;;;;;;;;;4144602;28;20037;-59
2021/04/21 05:50:48;;;;;;;2.63;1.10;;;;;;;;;;4150577;28;20098;-58
2021/04/21 05:52:59;;;;;;;2.80;1.38;;;;;;;;;;4146070;28;20030;-60
2021/04/21 05:55:20;;;;;;;4.10;1.50;;;;;;;;;;4143207;28;20494;-59
2021/04/21 05:57:31;;;;;;;2.30;1.25;;;;;;;;;;4147920;28;20103;-60
2021/04/21 05:59:51;;;;;;;3.38;1.42;;;;;;;;;;4140696;28;20045;-58
2021/04/21 06:01:55;;;;;;;3.20;1.33;;;;;;;;;;4149696;28;20044;-55
2021/04/21 06:03:58;;;;;;;3.67;1.25;;;;;;;;;;4144369;28;20053;-56
2021/04/21 06:06:03;;;;;;;4.07;1.40;;;;;;;;;;4149057;28;20634;-54
2021/04/21 06:08:13;;;;;;;4.43;1.52;;;;;;;;;;4145052;28;20233;-59
2021/04/21 06:10:28;;;;;;;3.97;1.23;;;;;;;;;;4142719;28;20026;-59
2021/04/21 06:12:32;;;;;;;2.72;1.20;;;;;;;;;;4145592;28;20490;-60
2021/04/21 06:14:35;;;;;;;2.50;1.20;;;;;;;;;;4157699;28;20041;-61
2021/04/21 06:16:37;;;;;;;3.80;1.10;;;;;;;;;;4150200;28;20021;-58
2021/04/21 06:18:39;;;;;;;1.33;0.93;;;;;;;;;;4143453;28;20051;-60
2021/04/21 06:20:43;;;;;;;2.28;1.33;;;;;;;;;;4143740;28;20056;-60
2021/04/21 06:22:58;;;;;;;3.90;1.60;;;;;;;;;;4159558;28;20028;-61
2021/04/21 06:25:14;;;;;;;7.63;1.30;;;;;;;;;;4142420;28;20045;-60
2021/04/21 06:27:16;;;;;;;2.80;1.42;;;;;;;;;;4145701;28;20029;-59
2021/04/21 06:29:18;;;;;;;2.92;1.40;;;;;;;;;;4154538;28;20040;-59
2021/04/21 06:31:20;;;;;;;3.50;1.50;;;;;;;;;;4158174;28;20029;-59
2021/04/21 06:33:22;;;;;;;6.10;1.58;;;;;;;;;;4139141;28;20034;-60
2021/04/21 06:35:29;;;;;;;2.97;1.05;;;;;;;;;;4144440;28;20115;-59
2021/04/21 06:37:31;;;;;;;2.40;1.38;;;;;;;;;;4143646;28;20775;-58
2021/04/21 06:39:33;;;;;;;2.50;1.27;;;;;;;;;;4143192;28;20539;-55
2021/04/21 06:41:35;;;;;;;2.83;1.23;;;;;;;;;;4144663;28;20448;-63
2021/04/21 06:43:39;;;;;;;4.95;1.10;;;;;;;;;;4147186;28;20283;-59
2021/04/21 06:45:41;;;;;;;2.00;1.17;;;;;;;;;;4161872;28;20063;-58
2021/04/21 06:47:43;;;;;;;1.25;0.90;;;;;;;;;;4142803;28;20037;-58
2021/04/21 06:49:45;;;;;;;1.95;1.15;;;;;;;;;;4140282;28;20395;-58
2021/04/21 06:51:47;;;;;;;1.90;1.10;;;;;;;;;;4144786;28;20162;-60
2021/04/21 06:53:51;;;;;;;2.33;1.27;;;;;;;;;;4144962;28;20560;-57
2021/04/21 06:55:55;;;;;;;3.03;1.27;;;;;;;;;;4145782;28;20032;-59
2021/04/21 06:57:58;;;;;;;2.35;1.35;;;;;;;;;;4136620;28;20338;-60
2021/04/21 07:00:11;;;;;;;2.53;1.23;;;;;;;;;;4146673;28;20046;-60
2021/04/21 07:02:13;;;;;;;2.97;1.10;;;;;;;;;;4155211;28;20045;-62
2021/04/21 07:04:15;;;;;;;1.33;0.95;;;;;;;;;;4143388;28;20078;-61
2021/04/21 07:06:18;;;;;;;2.70;0.90;;;;;;;;;;4140679;28;20578;-61
2021/04/21 07:08:21;;;;;;;3.05;1.40;;;;;;;;;;4148601;28;20029;-62
2021/04/21 07:10:23;;;;;;;3.30;1.33;;;;;;;;;;4142668;28;20183;-62
2021/04/21 07:12:25;;;;;;;2.60;1.27;;;;;;;;;;4143950;28;20129;-60
2021/04/21 07:14:28;;;;;;;2.92;1.30;;;;;;;;;;4147393;28;20653;-66
2021/04/21 07:16:31;;;;;;;2.22;1.20;;;;;;;;;;4153248;28;20083;-65
2021/04/21 07:18:34;;;;;;;3.97;1.55;;;;;;;;;;4151275;28;20045;-62
2021/04/21 07:20:36;;;;;;;5.57;1.48;;;;;;;;;;4148384;28;20056;-60
2021/04/21 07:22:38;;;;;;;6.22;1.40;;;;;;;;;;4150235;28;20095;-60
2021/04/21 07:24:41;;;;;;;11.32;1.40;;;;;;;;;;4146250;28;20049;-60
2021/04/21 07:26:47;;;;;;;5.35;2.00;;;;;;;;;;4148358;28;20049;-60
2021/04/21 07:28:49;;;;;;;13.90;1.60;;;;;;;;;;4149010;28;20033;-60
2021/04/21 07:30:52;;;;;;;5.93;1.20;;;;;;;;;;4163521;28;20298;-60
2021/04/21 07:32:54;;;;;;;2.00;1.23;;;;;;;;;;4150999;28;20132;-60
2021/04/21 07:34:57;;;;;;;2.40;1.20;;;;;;;;;;4151802;28;20107;-60
2021/04/21 07:36:59;;;;;;;3.25;1.15;;;;;;;;;;4151336;28;20376;-62
2021/04/21 07:39:09;;;;;;;3.15;1.10;;;;;;;;;;4153678;28;20029;-62
2021/04/21 07:41:12;;;;;;;5.28;1.10;;;;;;;;;;4149516;28;20034;-62
2021/04/21 07:43:14;;;;;;;5.70;1.52;;;;;;;;;;4153900;28;20091;-64
2021/04/21 07:45:20;;;;;;;2.92;0.90;;;;;;;;;;4152372;28;20431;-61
2021/04/21 07:47:23;;;;;;;2.00;1.15;;;;;;;;;;4153529;28;20163;-61
2021/04/21 07:49:31;;;;;;;1.80;0.98;;;;;;;;;;4156150;28;20029;-63
2021/04/21 07:51:34;;;;;;;2.85;0.60;;;;;;;;;;4150622;28;20144;-60
2021/04/21 07:53:36;;;;;;;4.47;1.00;;;;;;;;;;4152949;28;20709;-61
2021/04/21 07:55:38;;;;;;;3.15;0.95;;;;;;;;;;4154156;28;20057;-61
2021/04/21 07:57:40;;;;;;;3.35;1.10;;;;;;;;;;4168034;28;20459;-63
2021/04/21 07:59:43;;;;;;;2.50;1.33;;;;;;;;;;4147211;28;20029;-66
2021/04/21 08:01:46;;;;;;;2.90;1.08;;;;;;;;;;4156104;28;20037;-61
2021/04/21 08:03:48;;;;;;;3.80;0.90;;;;;;;;;;4154571;28;20045;-60
2021/04/21 08:05:53;;;;;;;2.30;1.15;;;;;;;;;;4160668;28;20044;-61
2021/04/21 08:07:56;;;;;;;2.80;1.00;;;;;;;;;;4155519;28;20426;-61
2021/04/21 08:09:58;;;;;;;3.03;0.85;;;;;;;;;;4165715;28;20060;-61
2021/04/21 08:12:08;;;;;;;5.57;1.38;;;;;;;;;;4157684;28;20216;-62
2021/04/21 08:14:10;;;;;;;3.55;1.05;;;;;;;;;;4173720;28;20036;-61
2021/04/21 08:16:26;;;;;;;2.25;1.30;;;;;;;;;;4151699;28;20362;-62
2021/04/21 08:18:32;;;;;;;3.15;1.30;;;;;;;;;;4154751;28;20053;-59
2021/04/21 08:20:35;;;;;;;4.97;1.45;;;;;;;;;;4148599;28;20048;-61
2021/04/21 08:22:36;;;;;;;;;;;;;;;;;;4152105;28;20041;-59
2021/04/21 08:24:40;;;;;;;2.15;1.35;;;;;;;;;;4152030;28;20348;-59
2021/04/21 08:26:43;;;;;;;3.78;1.60;;;;;;;;;;4148110;28;20079;-60
2021/04/21 08:28:45;;;;;;;3.83;1.65;;;;;;;;;;4151907;28;20037;-61
2021/04/21 08:31:01;;;;;;;4.30;1.30;;;23.80;50.70;;;;;;4150736;28;20124;-60
2021/04/21 08:33:03;;;;;;;3.42;1.23;;;22.90;52.70;;;;;;4168061;28;20569;-66
2021/04/21 08:35:06;;;;;;;5.93;1.67;;;22.90;52.80;;;;;;4151251;28;20574;-61
2021/04/21 08:37:09;;;;;;;5.63;1.38;;;22.90;52.70;;;;;;4149764;28;20275;-62
2021/04/21 08:39:12;;;;;;;14.00;2.15;;;22.90;52.50;;;;;;4148627;28;20048;-62
2021/04/21 08:41:19;;;;;;;6.18;2.03;;;22.90;52.20;;;;;;4155934;28;20031;-62
2021/04/21 08:43:21;;;;;;;5.80;1.70;;;22.80;51.80;;;;;;4152272;28;20083;-65
2021/04/21 08:45:24;;;;;;;3.17;1.50;;;22.80;51.70;;;;;;4149270;28;20037;-64
2021/04/21 08:47:26;;;;;;;5.47;1.35;;;22.80;51.60;;;;;;4147379;28;20132;-64
2021/04/21 08:49:31;;;;;;;2.72;1.33;;;22.80;51.60;;;;;;4154422;28;20021;-60
2021/04/21 08:51:33;;;;;;;4.28;1.35;;;22.80;51.80;;;;;;4147697;28;20048;-60
2021/04/21 08:53:36;;;;;;;3.03;1.35;;;22.80;51.80;;;;;;4150935;28;20546;-60
2021/04/21 08:55:39;;;;;;;2.50;1.30;;;22.80;52.30;;;;;;4152473;28;20110;-60
2021/04/21 08:57:43;;;;;;;6.07;1.98;;;22.70;51.70;;;;;;4152383;28;20065;-61
2021/04/21 08:59:45;;;;;;;3.83;1.83;;;22.70;51.90;;;;;;4151143;28;20523;-61
2021/04/21 09:01:48;;;;;;;3.13;1.38;;;22.70;51.80;;;;;;4149809;28;20049;-62
2021/04/21 09:03:51;;;;;;;4.45;1.65;;;22.70;51.80;;;;;;4151988;28;20061;-61
2021/04/21 09:05:53;;;;;;;5.80;1.65;;;22.70;51.90;;;;;;4151099;28;20455;-64
2021/04/21 09:07:56;;;;;;;5.32;1.92;;;22.60;51.90;;;;;;4152367;28;20042;-60
2021/04/21 09:10:01;;;;;;;4.03;1.75;;;22.60;51.90;;;;;;4149989;28;20362;-61
2021/04/21 09:12:05;;;;;;;7.88;1.92;;;22.60;52.10;;;;;;4150389;28;20045;-61
2021/04/21 09:14:07;;;;;;;5.53;2.17;;;22.60;52.00;;;;;;4147787;28;20479;-61
2021/04/21 09:16:10;;;;;;;3.67;1.60;;;22.60;52.00;;;;;;4147615;28;20461;-61
2021/04/21 09:18:12;;;;;;;7.63;2.50;;;22.50;52.00;;;;;;4148330;28;20078;-60
2021/04/21 09:20:22;;;;;;;7.85;2.55;;;22.50;52.10;;;;;;4147833;28;20120;-58
2021/04/21 09:22:25;;;;;;;5.75;1.98;;;22.50;52.20;;;;;;4150510;28;20057;-66
2021/04/21 09:24:28;;;;;;;5.15;2.40;;;22.50;52.30;;;;;;4149152;28;20440;-59
2021/04/21 09:26:34;;;;;;;;;;;22.50;52.10;;;;;;4148989;28;20068;-61
2021/04/21 09:28:41;;;;;;;4.13;2.10;;;22.50;52.10;;;;;;4148731;28;20303;-60
2021/04/21 09:30:51;;;;;;;6.00;2.75;;;22.50;52.20;;;;;;4147309;28;20354;-60
2021/04/21 09:32:56;;;;;;;7.47;2.45;;;22.50;52.10;;;;;;4146187;28;20459;-61
2021/04/21 09:34:58;;;;;;;6.05;3.03;;;22.50;52.20;;;;;;4155373;28;20021;-62
2021/04/21 09:37:00;;;;;;;5.78;2.88;;;22.40;51.70;;;;;;4153792;28;20033;-60
2021/04/21 09:39:36;;;;;;;7.80;3.30;;;22.40;50.70;;;;;;4156962;28;20076;-60
2021/04/21 09:41:40;;;;;;;5.78;2.50;;;22.40;50.80;;;;;;4156411;28;20048;-60
2021/04/21 09:43:42;;;;;;;;;;;22.30;50.50;;;;;;4156200;28;20094;-60
2021/04/21 09:45:47;;;;;;;5.38;2.40;;;22.20;50.70;;;;;;4157544;28;20290;-61
2021/04/21 09:48:08;;;;;;;4.95;2.20;;;22.20;50.70;;;;;;4151323;28;20138;-61
2021/04/21 09:50:12;;;;;;;4.10;2.22;;;22.20;50.70;;;;;;4148540;28;20475;-62
2021/04/21 09:52:15;;;;;;;5.95;2.40;;;22.10;50.90;;;;;;4151201;28;20259;-60
2021/04/21 09:54:37;;;;;;;3.65;1.70;;;22.10;51.40;;;;;;4149089;28;20123;-60
2021/04/21 09:56:41;;;;;;;7.25;2.70;;;22.10;51.70;;;;;;4151199;28;20193;-62
2021/04/21 09:58:43;;;;;;;;;;;22.10;52.10;;;;;;4150321;28;20537;-59
2021/04/21 10:00:45;;;;;;;9.25;2.00;;;22.10;52.20;;;;;;4151481;28;19917;-60
2021/04/21 10:02:47;;;;;;;7.55;1.98;;;22.10;52.40;;;;;;4144704;28;20176;-60
2021/04/21 10:04:49;;;;;;;3.90;1.80;;;22.10;52.80;;;;;;4153679;28;20505;-60
2021/04/21 10:06:58;;;;;;;3.40;1.50;;;22.10;53.00;;;;;;4146523;28;20056;-58
2021/04/21 10:09:00;;;;;;;8.05;2.03;;;22.10;53.20;;;;;;4152474;28;20041;-58
2021/04/21 10:11:05;;;;;;;5.32;1.50;;;22.10;53.30;;;;;;4147362;28;20457;-59
2021/04/21 10:13:20;;;;;;;11.93;2.00;;;22.10;53.50;;;;;;4141540;28;20075;-60
2021/04/21 10:15:31;;;;;;;7.32;1.80;;;22.10;53.60;;;;;;4146338;28;20029;-61
2021/04/21 10:17:39;;;;;;;4.65;2.03;;;22.10;53.70;;;;;;4141107;28;20649;-60
2021/04/21 10:19:42;;;;;;;2.83;1.60;;;22.10;53.80;;;;;;4146836;28;20657;-63
2021/04/21 10:21:45;;;;;;;6.05;1.77;;;22.10;53.90;;;;;;4146352;28;20041;-64
2021/04/21 10:23:49;;;;;;;7.28;1.88;;;22.10;54.10;;;;;;4141733;28;20049;-62
2021/04/21 10:25:51;;;;;;;4.80;1.60;;;22.10;54.20;;;;;;4148129;28;20359;-65
2021/04/21 10:27:54;;;;;;;6.45;1.50;;;22.10;54.20;;;;;;4146093;28;20041;-61
2021/04/21 10:29:57;;;;;;;5.82;2.00;;;22.10;54.40;;;;;;4146096;28;20325;-63
2021/04/21 10:31:59;;;;;;;4.00;2.20;;;22.10;54.40;;;;;;4147082;28;20386;-62
2021/04/21 10:34:05;;;;;;;2.75;1.80;;;22.10;54.50;;;;;;4143023;28;20534;-61
2021/04/21 10:36:08;;;;;;;2.90;1.42;;;22.10;54.50;;;;;;4145679;28;20355;-61
2021/04/21 10:38:15;;;;;;;5.20;1.83;;;22.10;54.50;;;;;;4146250;28;20034;-63
2021/04/21 10:40:26;;;;;;;3.60;1.70;;;22.00;54.50;;;;;;4147235;28;20210;-62
2021/04/21 10:42:29;;;;;;;2.85;1.45;;;22.10;54.60;;;;;;4143847;28;20053;-63
2021/04/21 10:44:32;;;;;;;5.00;1.90;;;22.10;54.80;;;;;;4146562;28;20109;-63
2021/04/21 10:46:58;;;;;;;4.65;1.55;;;22.00;54.80;;;;;;4148076;28;20653;-61
2021/04/21 10:49:01;;;;;;;4.63;1.70;;;22.00;54.90;;;;;;4145960;28;20120;-67
2021/04/21 10:51:03;;;;;;;3.92;1.70;;;22.10;55.00;;;;;;4146663;28;20151;-64
2021/04/21 10:53:05;;;;;;;4.07;1.73;;;22.10;55.20;;;;;;4152438;28;20323;-60
2021/04/21 10:55:27;;;;;;;3.40;1.60;;;22.00;55.20;;;;;;4146137;28;20090;-61
2021/04/21 10:57:41;;;;;;;4.00;1.60;;;22.00;55.20;;;;;;4149636;28;20395;-61
2021/04/21 11:00:06;;;;;;;4.05;1.55;;;22.00;55.20;;;;;;4144637;28;20102;-65
2021/04/21 11:02:40;;;;;;;3.22;1.45;;;22.00;55.30;;;;;;4145762;28;20054;-63
2021/04/21 11:05:05;;;;;;;2.22;1.50;;;22.00;55.40;;;;;;4152671;28;20117;-64
2021/04/21 11:07:33;;;;;;;5.00;1.75;;;22.00;55.40;;;;;;4147690;28;20163;-61
2021/04/21 11:09:53;;;;;;;5.57;1.70;;;22.00;55.30;;;;;;4151245;28;20056;-66
2021/04/21 11:11:55;;;;;;;2.13;1.48;;;22.00;55.30;;;;;;4145743;28;20038;-65
2021/04/21 11:13:58;;;;;;;2.97;1.40;;;22.00;55.40;;;;;;4149607;28;20782;-59
2021/04/21 11:16:00;;;;;;;5.78;2.15;;;22.00;55.40;;;;;;4148886;28;21285;-61
2021/04/21 11:18:29;;;;;;;2.72;1.45;;;22.00;55.60;;;;;;4147886;28;20536;-62
2021/04/21 11:20:46;;;;;;;2.88;1.50;;;22.00;55.50;;;;;;4150094;28;20156;-62
2021/04/21 11:22:49;;;;;;;2.92;1.38;;;21.90;55.50;;;;;;4151666;28;20060;-63
2021/04/21 11:25:22;;;;;;;3.33;1.30;;;21.90;55.60;;;;;;4149014;28;20041;-62
2021/04/21 11:27:44;;;;;;;3.47;1.33;;;21.90;55.60;;;;;;4146812;28;20037;-62
2021/04/21 11:29:46;;;;;;;3.05;1.48;;;21.90;55.70;;;;;;4149882;28;20030;-63
2021/04/21 11:31:52;;;;;;;3.95;1.45;;;21.90;55.90;;;;;;4149635;28;20108;-62
2021/04/21 11:33:55;;;;;;;2.55;1.40;;;21.90;55.80;;;;;;4146882;28;20506;-63
2021/04/21 11:36:35;;;;;;;2.42;1.40;;;21.90;55.70;;;;;;4149057;28;20082;-63